sensor_id;sensor_type;location;lat;lon;timestamp;P1;durP1;ratioP1;P2;durP2;ratioP2
66542;SDS011;53395;37.360;-122.046;2022-09-09T00:04:27;94.07;;;88.43;;
66542;SDS011;53395;37.360;-122.046;2022-09-09T00:06:59;78.07;;;73.35;;
66542;SDS011;53395;37.360;-122.046;2022-09-09T00:09:49;75.05;;;70.07;;
66542;SDS011;53395;37.360;-122.046;2022-09-09T00:15:19;68.45;;;64.07;;
66542;SDS011;53395;37.360;-122.046;2022-09-09T00:20:39;63.83;;;59.80;;
66542;SDS011;53395;37.360;-122.046;2022-09-09T00:26:02;69.72;;;65.28;;
66542;SDS011;53395;37.360;-122.046;2022-09-09T00:31:01;71.75;;;67.18;;
66542;SDS011;53395;37.360;-122.046;2022-09-09T00:33:37;75.55;;;70.22;;
66542;SDS011;53395;37.360;-122.046;2022-09-09T00:36:07;76.97;;;72.30;;
66542;SDS011;53395;37.360;-122.046;2022-09-09T00:38:55;67.57;;;63.25;;
66542;SDS011;53395;37.360;-122.046;2022-09-09T00:54:49;62.90;;;58.78;;
66542;SDS011;53395;37.360;-122.046;2022-09-09T01:07:54;67.60;;;63.17;;
66542;SDS011;53395;37.360;-122.046;2022-09-09T01:10:30;64.57;;;60.33;;
66542;SDS011;53395;37.360;-122.046;2022-09-09T01:13:25;62.00;;;57.83;;
66542;SDS011;53395;37.360;-122.046;2022-09-09T01:15:57;57.35;;;53.30;;
66542;SDS011;53395;37.360;-122.046;2022-09-09T01:18:29;60.38;;;56.45;;
66542;SDS011;53395;37.360;-122.046;2022-09-09T01:28:45;60.53;;;56.30;;
66542;SDS011;53395;37.360;-122.046;2022-09-09T01:31:37;60.55;;;56.28;;
66542;SDS011;53395;37.360;-122.046;2022-09-09T01:34:19;62.90;;;58.67;;
66542;SDS011;53395;37.360;-122.046;2022-09-09T01:39:19;65.72;;;61.45;;
66542;SDS011;53395;37.360;-122.046;2022-09-09T01:41:46;66.95;;;62.13;;
66542;SDS011;53395;37.360;-122.046;2022-09-09T01:44:12;67.25;;;62.70;;
66542;SDS011;53395;37.360;-122.046;2022-09-09T01:46:40;74.43;;;69.18;;
66542;SDS011;53395;37.360;-122.046;2022-09-09T01:49:06;64.03;;;59.53;;
66542;SDS011;53395;37.360;-122.046;2022-09-09T01:51:34;65.53;;;60.60;;
66542;SDS011;53395;37.360;-122.046;2022-09-09T01:54:03;61.58;;;57.58;;
66542;SDS011;53395;37.360;-122.046;2022-09-09T02:04:39;74.90;;;69.68;;
66542;SDS011;53395;37.360;-122.046;2022-09-09T02:07:13;79.68;;;74.65;;
66542;SDS011;53395;37.360;-122.046;2022-09-09T02:09:41;80.35;;;75.25;;
66542;SDS011;53395;37.360;-122.046;2022-09-09T02:12:13;83.25;;;77.90;;
66542;SDS011;53395;37.360;-122.046;2022-09-09T02:14:46;87.95;;;82.13;;
66542;SDS011;53395;37.360;-122.046;2022-09-09T02:17:18;84.80;;;79.18;;
66542;SDS011;53395;37.360;-122.046;2022-09-09T02:19:52;83.25;;;77.78;;
66542;SDS011;53395;37.360;-122.046;2022-09-09T02:22:23;80.75;;;75.75;;
66542;SDS011;53395;37.360;-122.046;2022-09-09T02:24:53;81.68;;;76.25;;
66542;SDS011;53395;37.360;-122.046;2022-09-09T02:27:24;82.63;;;77.28;;
66542;SDS011;53395;37.360;-122.046;2022-09-09T02:29:51;85.07;;;79.57;;
66542;SDS011;53395;37.360;-122.046;2022-09-09T02:32:19;75.68;;;70.43;;
66542;SDS011;53395;37.360;-122.046;2022-09-09T02:34:50;77.40;;;72.63;;
66542;SDS011;53395;37.360;-122.046;2022-09-09T02:37:23;72.70;;;67.70;;
66542;SDS011;53395;37.360;-122.046;2022-09-09T02:39:57;71.28;;;66.47;;
66542;SDS011;53395;37.360;-122.046;2022-09-09T02:44:55;51.05;;;47.20;;
66542;SDS011;53395;37.360;-122.046;2022-09-09T02:50:16;54.88;;;50.83;;
66542;SDS011;53395;37.360;-122.046;2022-09-09T02:53:16;53.08;;;49.05;;
66542;SDS011;53395;37.360;-122.046;2022-09-09T02:55:47;53.78;;;49.33;;
66542;SDS011;53395;37.360;-122.046;2022-09-09T02:58:16;51.13;;;46.28;;
66542;SDS011;53395;37.360;-122.046;2022-09-09T03:00:45;45.67;;;41.40;;
66542;SDS011;53395;37.360;-122.046;2022-09-09T03:03:13;46.75;;;42.63;;
66542;SDS011;53395;37.360;-122.046;2022-09-09T03:05:41;46.20;;;42.05;;
66542;SDS011;53395;37.360;-122.046;2022-09-09T03:08:08;47.75;;;42.80;;
66542;SDS011;53395;37.360;-122.046;2022-09-09T03:10:35;40.92;;;36.60;;
66542;SDS011;53395;37.360;-122.046;2022-09-09T03:13:02;41.10;;;37.03;;
66542;SDS011;53395;37.360;-122.046;2022-09-09T03:15:31;43.05;;;38.88;;
66542;SDS011;53395;37.360;-122.046;2022-09-09T03:17:58;45.50;;;41.15;;
66542;SDS011;53395;37.360;-122.046;2022-09-09T03:20:25;42.45;;;37.47;;
66542;SDS011;53395;37.360;-122.046;2022-09-09T03:22:53;41.58;;;37.58;;
66542;SDS011;53395;37.360;-122.046;2022-09-09T03:25:20;44.10;;;39.70;;
66542;SDS011;53395;37.360;-122.046;2022-09-09T03:27:49;43.00;;;39.15;;
66542;SDS011;53395;37.360;-122.046;2022-09-09T03:30:20;41.83;;;37.83;;
66542;SDS011;53395;37.360;-122.046;2022-09-09T03:32:47;40.05;;;35.50;;
66542;SDS011;53395;37.360;-122.046;2022-09-09T03:35:16;42.35;;;38.20;;
66542;SDS011;53395;37.360;-122.046;2022-09-09T03:37:43;36.78;;;32.90;;
66542;SDS011;53395;37.360;-122.046;2022-09-09T03:40:09;38.00;;;33.55;;
66542;SDS011;53395;37.360;-122.046;2022-09-09T03:42:36;37.25;;;33.55;;
66542;SDS011;53395;37.360;-122.046;2022-09-09T03:45:04;37.85;;;34.45;;
66542;SDS011;53395;37.360;-122.046;2022-09-09T03:47:31;37.45;;;34.25;;
66542;SDS011;53395;37.360;-122.046;2022-09-09T03:49:58;38.15;;;34.38;;
66542;SDS011;53395;37.360;-122.046;2022-09-09T03:52:24;36.15;;;32.50;;
66542;SDS011;53395;37.360;-122.046;2022-09-09T03:54:51;36.55;;;33.20;;
66542;SDS011;53395;37.360;-122.046;2022-09-09T03:57:19;38.05;;;34.35;;
66542;SDS011;53395;37.360;-122.046;2022-09-09T03:59:45;40.88;;;37.25;;
66542;SDS011;53395;37.360;-122.046;2022-09-09T04:02:11;37.78;;;34.25;;
66542;SDS011;53395;37.360;-122.046;2022-09-09T04:04:38;38.92;;;35.38;;
66542;SDS011;53395;37.360;-122.046;2022-09-09T04:07:05;37.92;;;34.55;;
66542;SDS011;53395;37.360;-122.046;2022-09-09T04:09:34;34.90;;;31.65;;
66542;SDS011;53395;37.360;-122.046;2022-09-09T04:12:00;37.13;;;33.83;;
66542;SDS011;53395;37.360;-122.046;2022-09-09T04:14:26;33.92;;;30.73;;
66542;SDS011;53395;37.360;-122.046;2022-09-09T04:16:54;40.83;;;37.33;;
66542;SDS011;53395;37.360;-122.046;2022-09-09T04:19:22;37.67;;;33.97;;
66542;SDS011;53395;37.360;-122.046;2022-09-09T04:21:48;36.92;;;33.13;;
66542;SDS011;53395;37.360;-122.046;2022-09-09T04:24:16;40.03;;;36.00;;
66542;SDS011;53395;37.360;-122.046;2022-09-09T04:26:46;42.45;;;38.80;;
66542;SDS011;53395;37.360;-122.046;2022-09-09T04:29:12;44.50;;;40.85;;
66542;SDS011;53395;37.360;-122.046;2022-09-09T04:31:38;42.10;;;38.30;;
66542;SDS011;53395;37.360;-122.046;2022-09-09T04:34:08;45.00;;;40.63;;
66542;SDS011;53395;37.360;-122.046;2022-09-09T04:36:34;47.90;;;43.58;;
66542;SDS011;53395;37.360;-122.046;2022-09-09T04:39:01;51.28;;;46.65;;
66542;SDS011;53395;37.360;-122.046;2022-09-09T04:41:28;55.30;;;50.65;;
66542;SDS011;53395;37.360;-122.046;2022-09-09T04:43:56;54.45;;;49.97;;
66542;SDS011;53395;37.360;-122.046;2022-09-09T04:46:22;55.22;;;50.85;;
66542;SDS011;53395;37.360;-122.046;2022-09-09T04:48:49;56.05;;;51.50;;
66542;SDS011;53395;37.360;-122.046;2022-09-09T04:51:18;58.03;;;53.17;;
66542;SDS011;53395;37.360;-122.046;2022-09-09T04:53:44;51.20;;;46.85;;
66542;SDS011;53395;37.360;-122.046;2022-09-09T04:56:16;47.58;;;43.22;;
66542;SDS011;53395;37.360;-122.046;2022-09-09T04:58:43;53.30;;;49.03;;
66542;SDS011;53395;37.360;-122.046;2022-09-09T05:01:14;54.70;;;50.17;;
66542;SDS011;53395;37.360;-122.046;2022-09-09T05:03:46;57.67;;;52.50;;
66542;SDS011;53395;37.360;-122.046;2022-09-09T05:06:17;60.97;;;55.92;;
66542;SDS011;53395;37.360;-122.046;2022-09-09T05:08:44;68.05;;;62.42;;
66542;SDS011;53395;37.360;-122.046;2022-09-09T05:11:15;69.15;;;63.50;;
66542;SDS011;53395;37.360;-122.046;2022-09-09T05:13:41;70.28;;;64.45;;
66542;SDS011;53395;37.360;-122.046;2022-09-09T05:16:08;88.05;;;81.00;;
66542;SDS011;53395;37.360;-122.046;2022-09-09T05:18:37;104.45;;;96.68;;
66542;SDS011;53395;37.360;-122.046;2022-09-09T05:21:04;113.15;;;104.72;;
66542;SDS011;53395;37.360;-122.046;2022-09-09T05:23:31;83.10;;;76.38;;
66542;SDS011;53395;37.360;-122.046;2022-09-09T05:25:59;85.78;;;79.00;;
66542;SDS011;53395;37.360;-122.046;2022-09-09T05:28:26;92.75;;;85.22;;
66542;SDS011;53395;37.360;-122.046;2022-09-09T05:31:00;212.05;;;195.23;;
66542;SDS011;53395;37.360;-122.046;2022-09-09T05:33:33;105.00;;;95.32;;
66542;SDS011;53395;37.360;-122.046;2022-09-09T05:36:02;114.25;;;103.40;;
66542;SDS011;53395;37.360;-122.046;2022-09-09T05:38:30;99.50;;;89.70;;
66542;SDS011;53395;37.360;-122.046;2022-09-09T05:41:02;88.50;;;80.00;;
66542;SDS011;53395;37.360;-122.046;2022-09-09T05:43:29;84.50;;;77.88;;
66542;SDS011;53395;37.360;-122.046;2022-09-09T05:46:14;92.75;;;85.93;;
66542;SDS011;53395;37.360;-122.046;2022-09-09T05:48:41;86.05;;;78.85;;
66542;SDS011;53395;37.360;-122.046;2022-09-09T05:51:13;87.53;;;80.57;;
66542;SDS011;53395;37.360;-122.046;2022-09-09T05:53:42;87.25;;;80.38;;
66542;SDS011;53395;37.360;-122.046;2022-09-09T05:56:10;92.75;;;85.88;;
66542;SDS011;53395;37.360;-122.046;2022-09-09T05:58:42;101.63;;;94.05;;
66542;SDS011;53395;37.360;-122.046;2022-09-09T06:01:13;86.75;;;80.13;;
66542;SDS011;53395;37.360;-122.046;2022-09-09T06:03:41;95.10;;;88.20;;
66542;SDS011;53395;37.360;-122.046;2022-09-09T06:06:09;96.90;;;89.88;;
66542;SDS011;53395;37.360;-122.046;2022-09-09T06:08:38;88.00;;;81.35;;
66542;SDS011;53395;37.360;-122.046;2022-09-09T06:11:06;93.82;;;86.85;;
66542;SDS011;53395;37.360;-122.046;2022-09-09T06:13:34;89.70;;;83.18;;
66542;SDS011;53395;37.360;-122.046;2022-09-09T06:16:04;91.88;;;84.85;;
66542;SDS011;53395;37.360;-122.046;2022-09-09T06:18:37;87.50;;;80.95;;
66542;SDS011;53395;37.360;-122.046;2022-09-09T06:21:04;95.05;;;87.88;;
66542;SDS011;53395;37.360;-122.046;2022-09-09T06:23:35;90.15;;;83.35;;
66542;SDS011;53395;37.360;-122.046;2022-09-09T06:26:05;87.55;;;80.72;;
66542;SDS011;53395;37.360;-122.046;2022-09-09T06:28:33;90.65;;;83.60;;
66542;SDS011;53395;37.360;-122.046;2022-09-09T06:31:01;92.13;;;84.93;;
66542;SDS011;53395;37.360;-122.046;2022-09-09T06:33:33;92.20;;;84.95;;
66542;SDS011;53395;37.360;-122.046;2022-09-09T06:36:01;87.55;;;80.85;;
66542;SDS011;53395;37.360;-122.046;2022-09-09T06:38:29;89.63;;;82.55;;
66542;SDS011;53395;37.360;-122.046;2022-09-09T06:40:56;94.78;;;87.43;;
66542;SDS011;53395;37.360;-122.046;2022-09-09T06:43:24;91.25;;;84.53;;
66542;SDS011;53395;37.360;-122.046;2022-09-09T06:48:20;89.50;;;81.93;;
66542;SDS011;53395;37.360;-122.046;2022-09-09T06:50:46;88.05;;;81.43;;
66542;SDS011;53395;37.360;-122.046;2022-09-09T06:53:18;97.32;;;90.10;;
66542;SDS011;53395;37.360;-122.046;2022-09-09T06:55:45;86.70;;;79.95;;
66542;SDS011;53395;37.360;-122.046;2022-09-09T06:58:11;85.93;;;79.07;;
66542;SDS011;53395;37.360;-122.046;2022-09-09T07:00:38;90.80;;;83.45;;
66542;SDS011;53395;37.360;-122.046;2022-09-09T07:03:04;82.03;;;75.80;;
66542;SDS011;53395;37.360;-122.046;2022-09-09T07:05:31;78.15;;;71.68;;
66542;SDS011;53395;37.360;-122.046;2022-09-09T07:07:57;80.22;;;73.85;;
66542;SDS011;53395;37.360;-122.046;2022-09-09T07:10:24;82.45;;;75.72;;
66542;SDS011;53395;37.360;-122.046;2022-09-09T07:12:51;79.32;;;72.35;;
66542;SDS011;53395;37.360;-122.046;2022-09-09T07:15:18;74.53;;;68.20;;
66542;SDS011;53395;37.360;-122.046;2022-09-09T07:17:45;71.25;;;65.30;;
66542;SDS011;53395;37.360;-122.046;2022-09-09T07:20:11;69.25;;;63.33;;
66542;SDS011;53395;37.360;-122.046;2022-09-09T07:22:40;69.15;;;63.13;;
66542;SDS011;53395;37.360;-122.046;2022-09-09T07:25:06;63.88;;;58.03;;
66542;SDS011;53395;37.360;-122.046;2022-09-09T07:27:33;71.00;;;64.97;;
66542;SDS011;53395;37.360;-122.046;2022-09-09T07:29:59;64.15;;;58.17;;
66542;SDS011;53395;37.360;-122.046;2022-09-09T07:32:27;64.60;;;58.35;;
66542;SDS011;53395;37.360;-122.046;2022-09-09T07:34:55;65.10;;;58.92;;
66542;SDS011;53395;37.360;-122.046;2022-09-09T07:37:23;62.30;;;56.05;;
66542;SDS011;53395;37.360;-122.046;2022-09-09T07:39:49;60.38;;;54.65;;
66542;SDS011;53395;37.360;-122.046;2022-09-09T07:42:16;57.45;;;51.95;;
66542;SDS011;53395;37.360;-122.046;2022-09-09T07:44:43;50.55;;;45.40;;
66542;SDS011;53395;37.360;-122.046;2022-09-09T07:47:09;51.22;;;45.70;;
66542;SDS011;53395;37.360;-122.046;2022-09-09T07:49:35;50.47;;;44.45;;
66542;SDS011;53395;37.360;-122.046;2022-09-09T07:52:01;49.92;;;45.10;;
66542;SDS011;53395;37.360;-122.046;2022-09-09T07:54:28;53.75;;;47.65;;
66542;SDS011;53395;37.360;-122.046;2022-09-09T07:56:54;53.38;;;46.90;;
66542;SDS011;53395;37.360;-122.046;2022-09-09T07:59:21;51.33;;;45.60;;
66542;SDS011;53395;37.360;-122.046;2022-09-09T08:01:48;51.53;;;44.47;;
66542;SDS011;53395;37.360;-122.046;2022-09-09T08:04:18;54.40;;;45.63;;
66542;SDS011;53395;37.360;-122.046;2022-09-09T08:06:47;48.45;;;43.17;;
66542;SDS011;53395;37.360;-122.046;2022-09-09T08:09:17;52.55;;;41.95;;
66542;SDS011;53395;37.360;-122.046;2022-09-09T08:11:43;48.63;;;40.03;;
66542;SDS011;53395;37.360;-122.046;2022-09-09T08:14:10;55.85;;;50.03;;
66542;SDS011;53395;37.360;-122.046;2022-09-09T08:16:41;59.45;;;49.70;;
66542;SDS011;53395;37.360;-122.046;2022-09-09T08:21:36;52.47;;;38.40;;
66542;SDS011;53395;37.360;-122.046;2022-09-09T08:24:05;50.45;;;41.28;;
66542;SDS011;53395;37.360;-122.046;2022-09-09T08:26:33;54.85;;;48.53;;
66542;SDS011;53395;37.360;-122.046;2022-09-09T08:29:02;52.38;;;44.72;;
66542;SDS011;53395;37.360;-122.046;2022-09-09T08:31:31;57.13;;;47.63;;
66542;SDS011;53395;37.360;-122.046;2022-09-09T08:34:02;53.03;;;46.78;;
66542;SDS011;53395;37.360;-122.046;2022-09-09T08:36:31;56.90;;;45.92;;
66542;SDS011;53395;37.360;-122.046;2022-09-09T08:38:59;65.88;;;50.70;;
66542;SDS011;53395;37.360;-122.046;2022-09-09T08:41:32;55.75;;;49.40;;
66542;SDS011;53395;37.360;-122.046;2022-09-09T08:49:30;60.83;;;53.72;;
66542;SDS011;53395;37.360;-122.046;2022-09-09T08:52:31;56.33;;;50.33;;
66542;SDS011;53395;37.360;-122.046;2022-09-09T08:57:52;55.88;;;49.58;;
66542;SDS011;53395;37.360;-122.046;2022-09-09T09:00:20;64.05;;;51.35;;
66542;SDS011;53395;37.360;-122.046;2022-09-09T09:03:04;56.75;;;48.15;;
66542;SDS011;53395;37.360;-122.046;2022-09-09T09:05:50;54.30;;;44.47;;
66542;SDS011;53395;37.360;-122.046;2022-09-09T09:11:25;54.67;;;48.05;;
66542;SDS011;53395;37.360;-122.046;2022-09-09T09:13:55;57.50;;;46.63;;
66542;SDS011;53395;37.360;-122.046;2022-09-09T09:19:13;51.97;;;46.63;;
66542;SDS011;53395;37.360;-122.046;2022-09-09T09:21:42;60.67;;;53.75;;
66542;SDS011;53395;37.360;-122.046;2022-09-09T09:24:18;58.65;;;45.83;;
66542;SDS011;53395;37.360;-122.046;2022-09-09T09:26:46;56.03;;;44.70;;
66542;SDS011;53395;37.360;-122.046;2022-09-09T09:29:13;60.47;;;53.90;;
66542;SDS011;53395;37.360;-122.046;2022-09-09T09:31:45;55.30;;;45.97;;
66542;SDS011;53395;37.360;-122.046;2022-09-09T09:34:20;57.63;;;50.22;;
66542;SDS011;53395;37.360;-122.046;2022-09-09T09:36:54;56.50;;;50.13;;
66542;SDS011;53395;37.360;-122.046;2022-09-09T09:39:24;53.25;;;43.75;;
66542;SDS011;53395;37.360;-122.046;2022-09-09T09:41:52;55.55;;;45.17;;
66542;SDS011;53395;37.360;-122.046;2022-09-09T09:44:24;57.88;;;43.40;;
66542;SDS011;53395;37.360;-122.046;2022-09-09T09:46:52;57.22;;;44.22;;
66542;SDS011;53395;37.360;-122.046;2022-09-09T09:49:19;51.03;;;42.38;;
66542;SDS011;53395;37.360;-122.046;2022-09-09T09:51:45;61.13;;;42.45;;
66542;SDS011;53395;37.360;-122.046;2022-09-09T09:54:28;56.53;;;41.38;;
66542;SDS011;53395;37.360;-122.046;2022-09-09T09:57:14;50.55;;;44.35;;
66542;SDS011;53395;37.360;-122.046;2022-09-09T09:59:42;56.80;;;41.95;;
66542;SDS011;53395;37.360;-122.046;2022-09-09T10:02:16;55.95;;;43.03;;
66542;SDS011;53395;37.360;-122.046;2022-09-09T10:04:46;51.08;;;37.25;;
66542;SDS011;53395;37.360;-122.046;2022-09-09T10:07:15;55.83;;;42.30;;
66542;SDS011;53395;37.360;-122.046;2022-09-09T10:09:46;54.80;;;39.08;;
66542;SDS011;53395;37.360;-122.046;2022-09-09T10:23:21;49.58;;;38.30;;
66542;SDS011;53395;37.360;-122.046;2022-09-09T10:26:07;56.05;;;36.80;;
66542;SDS011;53395;37.360;-122.046;2022-09-09T10:36:46;59.05;;;37.38;;
66542;SDS011;53395;37.360;-122.046;2022-09-09T10:47:52;49.85;;;36.47;;
66542;SDS011;53395;37.360;-122.046;2022-09-09T10:56:03;51.83;;;36.33;;
66542;SDS011;53395;37.360;-122.046;2022-09-09T10:58:42;51.05;;;34.25;;
66542;SDS011;53395;37.360;-122.046;2022-09-09T11:04:48;57.45;;;31.73;;
66542;SDS011;53395;37.360;-122.046;2022-09-09T11:07:29;54.65;;;32.95;;
66542;SDS011;53395;37.360;-122.046;2022-09-09T11:10:16;52.28;;;32.60;;
66542;SDS011;53395;37.360;-122.046;2022-09-09T11:12:43;54.72;;;34.10;;
66542;SDS011;53395;37.360;-122.046;2022-09-09T11:15:17;52.53;;;31.17;;
66542;SDS011;53395;37.360;-122.046;2022-09-09T11:17:58;48.25;;;31.88;;
66542;SDS011;53395;37.360;-122.046;2022-09-09T11:20:26;50.80;;;31.35;;
66542;SDS011;53395;37.360;-122.046;2022-09-09T11:25:42;54.08;;;32.22;;
66542;SDS011;53395;37.360;-122.046;2022-09-09T11:28:27;53.85;;;31.95;;
66542;SDS011;53395;37.360;-122.046;2022-09-09T11:34:26;50.35;;;29.00;;
66542;SDS011;53395;37.360;-122.046;2022-09-09T11:40:14;43.75;;;27.23;;
66542;SDS011;53395;37.360;-122.046;2022-09-09T11:42:45;45.45;;;28.85;;
66542;SDS011;53395;37.360;-122.046;2022-09-09T11:45:23;49.03;;;30.10;;
66542;SDS011;53395;37.360;-122.046;2022-09-09T11:52:47;48.83;;;26.15;;
66542;SDS011;53395;37.360;-122.046;2022-09-09T11:55:28;46.20;;;26.20;;
66542;SDS011;53395;37.360;-122.046;2022-09-09T12:00:46;40.72;;;27.30;;
66542;SDS011;53395;37.360;-122.046;2022-09-09T12:06:00;47.47;;;29.55;;
66542;SDS011;53395;37.360;-122.046;2022-09-09T12:08:37;48.42;;;25.75;;
66542;SDS011;53395;37.360;-122.046;2022-09-09T12:11:08;42.13;;;28.17;;
66542;SDS011;53395;37.360;-122.046;2022-09-09T12:13:36;43.17;;;25.67;;
66542;SDS011;53395;37.360;-122.046;2022-09-09T12:16:02;44.53;;;25.73;;
66542;SDS011;53395;37.360;-122.046;2022-09-09T12:18:37;48.97;;;28.52;;
66542;SDS011;53395;37.360;-122.046;2022-09-09T12:23:52;45.95;;;25.88;;
66542;SDS011;53395;37.360;-122.046;2022-09-09T12:26:26;53.80;;;30.30;;
66542;SDS011;53395;37.360;-122.046;2022-09-09T12:31:58;41.78;;;24.20;;
66542;SDS011;53395;37.360;-122.046;2022-09-09T12:37:05;45.85;;;23.95;;
66542;SDS011;53395;37.360;-122.046;2022-09-09T12:39:55;45.58;;;25.05;;
66542;SDS011;53395;37.360;-122.046;2022-09-09T12:42:26;44.08;;;25.27;;
66542;SDS011;53395;37.360;-122.046;2022-09-09T12:44:57;39.63;;;27.77;;
66542;SDS011;53395;37.360;-122.046;2022-09-09T12:47:47;43.92;;;26.88;;
66542;SDS011;53395;37.360;-122.046;2022-09-09T12:50:21;46.80;;;24.55;;
66542;SDS011;53395;37.360;-122.046;2022-09-09T12:52:51;43.83;;;24.95;;
66542;SDS011;53395;37.360;-122.046;2022-09-09T12:55:28;45.53;;;25.77;;
66542;SDS011;53395;37.360;-122.046;2022-09-09T12:57:58;42.90;;;25.33;;
66542;SDS011;53395;37.360;-122.046;2022-09-09T13:00:29;47.25;;;26.55;;
66542;SDS011;53395;37.360;-122.046;2022-09-09T13:02:57;48.15;;;24.08;;
66542;SDS011;53395;37.360;-122.046;2022-09-09T13:05:35;44.97;;;26.15;;
66542;SDS011;53395;37.360;-122.046;2022-09-09T13:08:11;42.78;;;25.38;;
66542;SDS011;53395;37.360;-122.046;2022-09-09T13:10:40;44.85;;;25.17;;
66542;SDS011;53395;37.360;-122.046;2022-09-09T13:13:28;46.45;;;28.33;;
66542;SDS011;53395;37.360;-122.046;2022-09-09T13:16:03;40.03;;;26.73;;
66542;SDS011;53395;37.360;-122.046;2022-09-09T13:18:37;45.53;;;28.17;;
66542;SDS011;53395;37.360;-122.046;2022-09-09T13:21:07;42.50;;;28.33;;
66542;SDS011;53395;37.360;-122.046;2022-09-09T13:23:34;45.58;;;27.52;;
66542;SDS011;53395;37.360;-122.046;2022-09-09T13:26:03;41.70;;;26.92;;
66542;SDS011;53395;37.360;-122.046;2022-09-09T13:28:50;42.90;;;26.27;;
66542;SDS011;53395;37.360;-122.046;2022-09-09T13:31:19;43.55;;;27.02;;
66542;SDS011;53395;37.360;-122.046;2022-09-09T13:33:53;44.20;;;27.30;;
66542;SDS011;53395;37.360;-122.046;2022-09-09T13:36:29;48.05;;;28.70;;
66542;SDS011;53395;37.360;-122.046;2022-09-09T13:39:01;42.35;;;26.00;;
66542;SDS011;53395;37.360;-122.046;2022-09-09T13:41:32;46.17;;;31.23;;
66542;SDS011;53395;37.360;-122.046;2022-09-09T13:46:35;41.33;;;23.13;;
66542;SDS011;53395;37.360;-122.046;2022-09-09T13:51:39;44.42;;;30.05;;
66542;SDS011;53395;37.360;-122.046;2022-09-09T13:54:11;42.78;;;28.15;;
66542;SDS011;53395;37.360;-122.046;2022-09-09T13:56:39;44.33;;;29.67;;
66542;SDS011;53395;37.360;-122.046;2022-09-09T13:59:10;40.70;;;29.13;;
66542;SDS011;53395;37.360;-122.046;2022-09-09T14:01:40;52.33;;;28.73;;
66542;SDS011;53395;37.360;-122.046;2022-09-09T14:04:07;42.63;;;27.95;;
66542;SDS011;53395;37.360;-122.046;2022-09-09T14:06:34;45.65;;;32.88;;
66542;SDS011;53395;37.360;-122.046;2022-09-09T14:09:05;47.85;;;29.50;;
66542;SDS011;53395;37.360;-122.046;2022-09-09T14:11:32;45.67;;;32.90;;
66542;SDS011;53395;37.360;-122.046;2022-09-09T14:13:59;47.78;;;35.15;;
66542;SDS011;53395;37.360;-122.046;2022-09-09T14:16:26;46.40;;;35.17;;
66542;SDS011;53395;37.360;-122.046;2022-09-09T14:18:53;54.97;;;35.97;;
66542;SDS011;53395;37.360;-122.046;2022-09-09T14:21:22;50.80;;;37.70;;
66542;SDS011;53395;37.360;-122.046;2022-09-09T14:23:48;49.40;;;35.60;;
66542;SDS011;53395;37.360;-122.046;2022-09-09T14:26:15;51.28;;;43.92;;
66542;SDS011;53395;37.360;-122.046;2022-09-09T14:31:07;44.78;;;31.40;;
66542;SDS011;53395;37.360;-122.046;2022-09-09T14:33:35;50.47;;;37.03;;
66542;SDS011;53395;37.360;-122.046;2022-09-09T14:36:03;46.40;;;40.03;;
66542;SDS011;53395;37.360;-122.046;2022-09-09T14:38:30;53.97;;;41.47;;
66542;SDS011;53395;37.360;-122.046;2022-09-09T14:41:05;55.63;;;45.58;;
66542;SDS011;53395;37.360;-122.046;2022-09-09T14:43:32;65.72;;;43.50;;
66542;SDS011;53395;37.360;-122.046;2022-09-09T14:46:05;56.15;;;39.97;;
66542;SDS011;53395;37.360;-122.046;2022-09-09T14:48:36;58.88;;;42.28;;
66542;SDS011;53395;37.360;-122.046;2022-09-09T14:51:13;63.33;;;50.10;;
66542;SDS011;53395;37.360;-122.046;2022-09-09T14:53:41;63.47;;;43.83;;
66542;SDS011;53395;37.360;-122.046;2022-09-09T14:56:09;55.75;;;45.13;;
66542;SDS011;53395;37.360;-122.046;2022-09-09T14:58:40;59.92;;;45.80;;
66542;SDS011;53395;37.360;-122.046;2022-09-09T15:03:37;58.60;;;42.22;;
66542;SDS011;53395;37.360;-122.046;2022-09-09T15:06:04;66.07;;;43.30;;
66542;SDS011;53395;37.360;-122.046;2022-09-09T15:08:32;60.30;;;44.13;;
66542;SDS011;53395;37.360;-122.046;2022-09-09T15:13:25;65.90;;;41.30;;
66542;SDS011;53395;37.360;-122.046;2022-09-09T15:18:17;56.67;;;38.90;;
66542;SDS011;53395;37.360;-122.046;2022-09-09T15:23:13;57.83;;;39.78;;
66542;SDS011;53395;37.360;-122.046;2022-09-09T15:25:55;64.60;;;46.75;;
66542;SDS011;53395;37.360;-122.046;2022-09-09T15:28:21;56.63;;;43.28;;
66542;SDS011;53395;37.360;-122.046;2022-09-09T15:30:48;63.47;;;47.28;;
66542;SDS011;53395;37.360;-122.046;2022-09-09T15:33:17;60.55;;;45.38;;
66542;SDS011;53395;37.360;-122.046;2022-09-09T15:35:44;67.25;;;47.90;;
66542;SDS011;53395;37.360;-122.046;2022-09-09T15:38:11;65.82;;;48.45;;
66542;SDS011;53395;37.360;-122.046;2022-09-09T15:40:40;67.93;;;48.40;;
66542;SDS011;53395;37.360;-122.046;2022-09-09T15:45:33;62.75;;;42.67;;
66542;SDS011;53395;37.360;-122.046;2022-09-09T15:47:59;55.70;;;47.05;;
66542;SDS011;53395;37.360;-122.046;2022-09-09T15:50:26;65.88;;;51.88;;
66542;SDS011;53395;37.360;-122.046;2022-09-09T15:52:56;59.65;;;45.40;;
66542;SDS011;53395;37.360;-122.046;2022-09-09T15:55:23;70.15;;;43.03;;
66542;SDS011;53395;37.360;-122.046;2022-09-09T15:57:51;74.45;;;45.25;;
66542;SDS011;53395;37.360;-122.046;2022-09-09T16:00:18;62.58;;;49.45;;
66542;SDS011;53395;37.360;-122.046;2022-09-09T16:02:48;61.25;;;41.70;;
66542;SDS011;53395;37.360;-122.046;2022-09-09T16:05:15;66.20;;;47.42;;
66542;SDS011;53395;37.360;-122.046;2022-09-09T16:07:41;58.58;;;44.15;;
66542;SDS011;53395;37.360;-122.046;2022-09-09T16:10:10;68.03;;;45.33;;
66542;SDS011;53395;37.360;-122.046;2022-09-09T16:12:38;64.78;;;40.10;;
66542;SDS011;53395;37.360;-122.046;2022-09-09T16:15:05;67.10;;;43.97;;
66542;SDS011;53395;37.360;-122.046;2022-09-09T16:17:32;62.22;;;38.05;;
66542;SDS011;53395;37.360;-122.046;2022-09-09T16:20:03;61.88;;;44.50;;
66542;SDS011;53395;37.360;-122.046;2022-09-09T16:22:32;61.45;;;39.15;;
66542;SDS011;53395;37.360;-122.046;2022-09-09T16:24:58;53.60;;;39.13;;
66542;SDS011;53395;37.360;-122.046;2022-09-09T16:27:24;56.88;;;39.25;;
66542;SDS011;53395;37.360;-122.046;2022-09-09T16:29:50;80.65;;;44.70;;
66542;SDS011;53395;37.360;-122.046;2022-09-09T16:32:16;94.68;;;41.65;;
66542;SDS011;53395;37.360;-122.046;2022-09-09T16:34:43;63.38;;;36.63;;
66542;SDS011;53395;37.360;-122.046;2022-09-09T16:37:09;53.95;;;35.97;;
66542;SDS011;53395;37.360;-122.046;2022-09-09T16:39:36;59.92;;;38.90;;
66542;SDS011;53395;37.360;-122.046;2022-09-09T16:42:02;58.88;;;37.92;;
66542;SDS011;53395;37.360;-122.046;2022-09-09T16:44:30;62.72;;;35.33;;
66542;SDS011;53395;37.360;-122.046;2022-09-09T16:46:56;54.72;;;38.15;;